createdAt,value
2023-03-17T00:02:20.008Z,98073.38
2023-03-17T00:07:26.382Z,98057.66
2023-03-17T00:12:30.624Z,98064.78
2023-03-17T00:17:34.363Z,98059.72
2023-03-17T00:22:40.004Z,98055.72
2023-03-17T00:27:43.026Z,98056.78
2023-03-17T00:32:47.137Z,98055.06
2023-03-17T00:37:53.616Z,98049.72
2023-03-17T00:42:56.579Z,98066.38
2023-03-17T00:47:59.940Z,98057.94
2023-03-17T00:53:04.626Z,98030.81
2023-03-17T00:58:14.310Z,98035.16
2023-03-17T01:03:17.303Z,98030.72
2023-03-17T01:08:23.650Z,98026.19
2023-03-17T01:13:26.786Z,98016.56
2023-03-17T01:18:30.350Z,98016.78
2023-03-17T01:23:35.338Z,98027.75
2023-03-17T01:28:38.528Z,98029.88
2023-03-17T01:33:41.913Z,98026.00
2023-03-17T01:38:48.140Z,98023.84
2023-03-17T01:43:51.341Z,98028.06
2023-03-17T01:49:07.388Z,98001.88
2023-03-17T01:54:17.177Z,98017.94
2023-03-17T01:59:23.873Z,97993.56
2023-03-17T02:04:30.019Z,98004.50
2023-03-17T02:09:35.515Z,97993.78
2023-03-17T02:14:38.401Z,97967.19
2023-03-17T02:19:42.523Z,97957.59
2023-03-17T02:24:49.825Z,97945.88
2023-03-17T02:29:52.716Z,97953.34
2023-03-17T02:34:55.633Z,97959.78
2023-03-17T02:40:01.143Z,97962.94
2023-03-17T02:45:04.352Z,97945.34
2023-03-17T02:50:08.635Z,97945.53
2023-03-17T02:55:12.798Z,97942.78
2023-03-17T03:00:16.246Z,97938.78
2023-03-17T03:05:22.401Z,97941.06
2023-03-17T03:10:27.082Z,97926.41
2023-03-17T03:15:31.069Z,97933.19
2023-03-17T03:20:33.856Z,97934.72
2023-03-17T03:25:40.881Z,97940.41
2023-03-17T03:30:44.697Z,97939.31
2023-03-17T03:35:47.577Z,97937.63
2023-03-17T03:40:51.770Z,97920.69
2023-03-17T03:45:54.667Z,97931.44
2023-03-17T03:50:59.056Z,97914.34
2023-03-17T03:56:08.249Z,97924.13
2023-03-17T04:01:11.425Z,97930.22
2023-03-17T04:06:14.314Z,97938.91
2023-03-17T04:11:18.832Z,97952.16
2023-03-17T04:16:21.718Z,97944.97
2023-03-17T04:21:25.030Z,97934.66
2023-03-17T04:26:29.299Z,97921.22
2023-03-17T04:31:32.163Z,97923.31
2023-03-17T04:36:35.100Z,97936.75
2023-03-17T04:41:39.637Z,97936.75
2023-03-17T04:46:42.778Z,97945.88
2023-03-17T04:51:45.791Z,97945.31
2023-03-17T04:56:51.043Z,97947.81
2023-03-17T05:01:53.838Z,97959.88
2023-03-17T05:06:58.733Z,97958.91
2023-03-17T05:12:03.318Z,97959.50
2023-03-17T05:17:07.177Z,97967.84
2023-03-17T05:22:10.103Z,97965.34
2023-03-17T05:27:15.406Z,97956.22
2023-03-17T05:32:19.824Z,97954.69
2023-03-17T05:37:23.001Z,97947.66
2023-03-17T05:42:27.824Z,97941.81
2023-03-17T05:47:30.643Z,97943.69
2023-03-17T05:52:35.488Z,97945.03
2023-03-17T05:57:39.762Z,97938.44
2023-03-17T06:02:43.447Z,97933.28
2023-03-17T06:07:54.044Z,97930.28
2023-03-17T06:13:03.983Z,97938.91
2023-03-17T06:18:07.415Z,97926.06
2023-03-17T06:23:11.493Z,97925.75
2023-03-17T06:28:15.694Z,97935.81
2023-03-17T06:33:19.857Z,97939.38
2023-03-17T06:38:24.581Z,97932.97
2023-03-17T06:43:29.781Z,97942.34
2023-03-17T06:48:32.856Z,97951.19
2023-03-17T06:53:36.230Z,97937.38
2023-03-17T06:58:42.197Z,97935.88
2023-03-17T07:03:46.607Z,97923.28
2023-03-17T07:08:49.434Z,97929.28
2023-03-17T07:13:53.686Z,97940.81
2023-03-17T07:18:56.568Z,97932.44
2023-03-17T07:23:59.483Z,97941.34
2023-03-17T07:29:03.642Z,97936.06
2023-03-17T07:34:06.845Z,97924.47
2023-03-17T07:39:12.091Z,97948.19
2023-03-17T07:44:19.626Z,97941.00
2023-03-17T07:49:39.952Z,97946.09
2023-03-17T07:54:43.527Z,97936.72
2023-03-17T07:59:47.808Z,97928.16
2023-03-17T08:04:50.969Z,97921.91
2023-03-17T08:09:53.956Z,97924.22
2023-03-17T08:14:58.173Z,97921.31
2023-03-17T08:20:02.053Z,97927.09
2023-03-17T08:25:09.694Z,97925.69
2023-03-17T08:30:17.289Z,97926.84
2023-03-17T08:35:22.058Z,97931.59
2023-03-17T08:40:25.053Z,97929.91
2023-03-17T08:45:30.642Z,97916.06
2023-03-17T08:50:36.232Z,97905.94
2023-03-17T08:55:41.246Z,97910.00
2023-03-17T09:00:46.844Z,97895.03
2023-03-17T09:05:50.422Z,97892.22
2023-03-17T09:10:53.598Z,97884.78
2023-03-17T09:15:57.887Z,97894.78
2023-03-17T09:21:03.560Z,97900.03
2023-03-17T09:26:07.314Z,97896.47
2023-03-17T09:31:12.899Z,97902.78
2023-03-17T09:36:16.323Z,97892.22
2023-03-17T09:41:36.309Z,97889.59
2023-03-17T09:46:54.618Z,97883.88
2023-03-17T09:51:58.388Z,97888.88
2023-03-17T09:57:07.766Z,97902.63
2023-03-17T10:02:20.222Z,97904.25
2023-03-17T10:07:29.888Z,97888.81
2023-03-17T10:39:28.024Z,97859.88
2023-03-17T10:44:45.274Z,97864.56
2023-03-17T10:49:50.551Z,97871.25
2023-03-17T10:54:54.768Z,97875.94
2023-03-17T11:00:01.715Z,97875.47
2023-03-17T11:05:09.421Z,97860.53
2023-03-17T11:10:22.034Z,97851.69
2023-03-17T11:15:27.421Z,97854.91
2023-03-17T11:20:48.202Z,97842.94
2023-03-17T11:25:59.234Z,97842.16
2023-03-17T11:31:09.474Z,97823.81
2023-03-17T11:36:25.874Z,97828.78
2023-03-17T11:41:48.513Z,97815.34
2023-03-17T11:47:00.485Z,97804.72
2023-03-17T11:52:10.953Z,97808.94
2023-03-17T11:57:21.849Z,97806.88
2023-03-17T12:02:32.886Z,97809.75
2023-03-17T12:07:41.760Z,97808.09
2023-03-17T12:12:53.144Z,97798.94
2023-03-17T12:18:00.338Z,97804.06
2023-03-17T12:23:07.798Z,97807.53
2023-03-17T12:28:17.026Z,97790.06
2023-03-17T12:33:26.473Z,97788.50
2023-03-17T12:38:38.490Z,97791.84
2023-03-17T12:44:02.657Z,97805.81
2023-03-17T12:49:42.199Z,97795.47
2023-03-17T12:54:49.498Z,97793.47
2023-03-17T13:00:01.607Z,97793.50
2023-03-17T13:05:09.166Z,97798.16
2023-03-17T13:10:20.241Z,97794.88
2023-03-17T13:16:06.559Z,97802.38
2023-03-17T13:21:13.763Z,97777.81
2023-03-17T13:26:20.777Z,97772.13
2023-03-17T13:31:35.196Z,97756.97
2023-03-17T13:36:47.511Z,97751.00
2023-03-17T13:42:17.611Z,97757.84
2023-03-17T13:47:34.665Z,97759.91
2023-03-17T13:52:43.169Z,97765.72
2023-03-17T13:57:57.085Z,97757.22
2023-03-17T14:03:06.945Z,97753.91
2023-03-17T14:08:18.319Z,97743.03
2023-03-17T14:13:25.646Z,97747.41
2023-03-17T14:18:36.460Z,97744.72
2023-03-17T14:23:40.876Z,97735.66
2023-03-17T14:28:43.931Z,97754.72
2023-03-17T14:33:49.155Z,97738.31
2023-03-17T14:38:55.653Z,97741.63
2023-03-17T14:44:00.619Z,97742.28
2023-03-17T14:49:15.846Z,97734.09
2023-03-17T14:54:22.618Z,97724.38
2023-03-17T14:59:36.919Z,97735.50
2023-03-17T15:04:51.254Z,97729.84
2023-03-17T15:10:00.605Z,97739.75
2023-03-17T15:15:06.646Z,97734.72
2023-03-17T15:20:18.444Z,97738.41
2023-03-17T15:25:28.909Z,97743.97
2023-03-17T15:30:46.255Z,97742.47
2023-03-17T15:35:52.492Z,97740.78
2023-03-17T15:40:56.703Z,97751.00
2023-03-17T15:46:03.416Z,97757.88
2023-03-17T15:51:08.480Z,97749.16
2023-03-17T15:56:16.814Z,97753.38
2023-03-17T16:01:24.128Z,97757.53
2023-03-17T16:06:29.471Z,97759.38
2023-03-17T16:11:36.641Z,97753.34
2023-03-17T16:16:43.707Z,97746.31
2023-03-17T16:21:48.952Z,97720.28
2023-03-17T16:26:52.081Z,97716.06
2023-03-17T16:31:55.386Z,97707.81
2023-03-17T16:36:59.661Z,97704.94
2023-03-17T16:42:02.568Z,97706.59
2023-03-17T16:47:06.744Z,97706.22
2023-03-17T16:52:12.702Z,97712.38
2023-03-17T16:57:21.536Z,97715.50
2023-03-17T17:02:24.427Z,97723.19
2023-03-17T17:07:29.727Z,97722.69
2023-03-17T17:12:33.728Z,97741.34
2023-03-17T17:17:38.373Z,97741.28
2023-03-17T17:22:42.956Z,97744.56
2023-03-17T17:27:48.784Z,97746.34
2023-03-17T17:32:53.803Z,97736.47
2023-03-17T17:38:00.603Z,97740.88
2023-03-17T17:43:03.485Z,97742.50
2023-03-17T17:48:06.505Z,97743.25
2023-03-17T17:53:12.925Z,97742.91
2023-03-17T17:58:17.098Z,97735.03
2023-03-17T18:03:24.512Z,97742.84
2023-03-17T18:08:28.851Z,97746.25
2023-03-17T18:13:34.405Z,97739.69
2023-03-17T18:18:38.710Z,97747.63
2023-03-17T18:23:47.735Z,97763.41
2023-03-17T18:28:51.632Z,97767.38
2023-03-17T18:33:59.691Z,97760.78
2023-03-17T18:39:05.542Z,97773.94
2023-03-17T18:44:10.817Z,97778.31
2023-03-17T18:49:13.823Z,97783.88
2023-03-17T18:54:18.057Z,97789.63
2023-03-17T18:59:21.549Z,97779.72
2023-03-17T19:04:24.383Z,97788.31
2023-03-17T19:09:28.649Z,97790.59
2023-03-17T19:14:31.853Z,97795.81
2023-03-17T19:19:36.773Z,97791.47
2023-03-17T19:24:41.970Z,97785.06
2023-03-17T19:29:44.876Z,97801.59
2023-03-17T19:34:48.809Z,97792.69
2023-03-17T19:39:54.061Z,97798.13
2023-03-17T19:44:57.093Z,97792.41
2023-03-17T19:49:59.932Z,97800.00
2023-03-17T19:55:08.034Z,97799.72
2023-03-17T20:00:13.894Z,97801.69
2023-03-17T20:05:19.068Z,97797.66
2023-03-17T20:10:26.568Z,97815.47
2023-03-17T20:15:29.858Z,97811.25
2023-03-17T20:20:33.012Z,97807.19
2023-03-17T20:25:37.840Z,97812.66
2023-03-17T20:30:41.895Z,97818.81
2023-03-17T20:35:48.084Z,97821.31
2023-03-17T20:40:52.524Z,97822.47
2023-03-17T20:45:56.333Z,97822.59
2023-03-17T20:51:00.146Z,97826.94
2023-03-17T20:56:04.755Z,97830.88
2023-03-17T21:01:08.009Z,97826.81
2023-03-17T21:06:11.662Z,97819.81
2023-03-17T21:11:17.940Z,97826.28
2023-03-17T21:16:22.586Z,97829.47
2023-03-17T21:21:26.946Z,97833.13
2023-03-17T21:26:32.290Z,97818.72
2023-03-17T21:31:35.633Z,97812.41
2023-03-17T21:36:38.675Z,97812.56
2023-03-17T21:41:43.639Z,97828.94
2023-03-17T21:46:49.192Z,97831.03
2023-03-17T21:51:52.972Z,97832.44
2023-03-17T21:56:58.476Z,97835.38
2023-03-17T22:02:02.933Z,97837.47
2023-03-17T22:07:07.028Z,97845.84
2023-03-17T22:12:13.768Z,97845.16
2023-03-17T22:17:16.796Z,97846.72
2023-03-17T22:22:22.288Z,97855.66
2023-03-17T22:27:27.563Z,97855.94
2023-03-17T22:32:36.425Z,97858.31
2023-03-17T22:37:40.435Z,97862.78
2023-03-17T22:42:45.837Z,97864.47
2023-03-17T22:47:48.882Z,97874.25
2023-03-17T22:52:53.759Z,97872.56
2023-03-17T22:57:58.199Z,97856.75
2023-03-17T23:03:02.073Z,97878.16
2023-03-17T23:08:05.774Z,97870.03
2023-03-17T23:13:10.588Z,97876.44
2023-03-17T23:18:14.180Z,97877.31
2023-03-17T23:23:19.877Z,97889.34
2023-03-17T23:28:25.141Z,97890.91
2023-03-17T23:33:29.367Z,97894.94
2023-03-17T23:38:34.223Z,97910.84
2023-03-17T23:43:46.698Z,97916.16
2023-03-17T23:48:55.485Z,97915.47
2023-03-17T23:54:00.349Z,97925.66
2023-03-17T23:59:07.408Z,97924.78
